Time;durP1;ratioP1;P1;durP2;ratioP2;P2;SDS_P1;SDS_P2;PMS_P1;PMS_P2;Temp;Humidity;BMP_temperature;BMP_pressure;BME280_temperature;BME280_humidity;BME280_pressure;Samples;Min_cycle;Max_cycle;Signal;HPM_P1;HPM_P2
2021/08/13 00:02:22;;;;;;;14.57;8.07;;;;;;;16.64;80.74;99554.25;5013207;28;20613;-80
2021/08/13 00:04:48;;;;;;;12.60;7.28;;;;;;;16.54;81.00;99553.75;5013367;28;20049;-78
2021/08/13 00:07:14;;;;;;;15.02;7.28;;;;;;;16.21;80.84;99503.34;5014502;28;20042;-79
2021/08/13 00:09:40;;;;;;;14.55;8.07;;;;;;;16.49;81.00;99565.34;5029529;28;20085;-78
2021/08/13 00:12:06;;;;;;;10.63;7.15;;;;;;;16.43;81.36;99563.81;5013364;28;20044;-78
2021/08/13 00:14:32;;;;;;;10.63;6.65;;;;;;;16.31;81.03;99554.63;5013913;28;20474;-81
2021/08/13 00:16:58;;;;;;;11.15;7.40;;;;;;;16.27;81.25;99551.22;5013809;28;20099;-78
2021/08/13 00:19:24;;;;;;;11.23;6.65;;;;;;;16.23;81.33;99556.66;5034000;28;20038;-78
2021/08/13 00:21:49;;;;;;;12.80;6.53;;;;;;;16.19;81.35;99558.56;5026661;28;20038;-79
2021/08/13 00:24:16;;;;;;;13.50;7.28;;;;;;;16.18;81.49;99555.97;5012592;28;20045;-79
2021/08/13 00:26:42;;;;;;;11.63;6.82;;;;;;;16.19;81.50;99560.31;5013070;28;20042;-77
2021/08/13 00:29:08;;;;;;;14.95;7.20;;;;;;;16.25;81.70;99571.44;5018815;28;20064;-79
2021/08/13 00:31:34;;;;;;;13.70;7.25;;;;;;;16.19;81.60;99571.69;5036370;28;20045;-76
2021/08/13 00:33:59;;;;;;;9.70;7.28;;;;;;;16.10;81.70;99566.75;5027304;28;20037;-77
2021/08/13 00:36:26;;;;;;;11.20;6.55;;;;;;;16.10;82.07;99569.38;5000858;28;20738;-78
2021/08/13 00:38:54;;;;;;;13.55;7.18;;;;;;;16.06;81.67;99570.38;5012154;28;20037;-77
2021/08/13 00:41:21;;;;;;;13.82;6.90;;;;;;;16.07;81.89;99569.47;5012494;28;20041;-78
2021/08/13 00:43:48;;;;;;;11.40;6.53;;;;;;;16.02;81.76;99564.38;4980294;28;20140;-77
2021/08/13 00:46:17;;;;;;;8.98;6.07;;;;;;;16.05;82.01;99573.91;5012187;28;20088;-77
2021/08/13 00:49:03;;;;;;;8.55;6.38;;;;;;;15.98;82.05;99560.16;5012552;28;20053;-80
2021/08/13 00:51:49;;;;;;;13.35;6.90;;;;;;;16.04;82.03;99580.06;5026594;28;20061;-77
2021/08/13 00:54:15;;;;;;;10.07;6.40;;;;;;;15.93;82.33;99562.94;5012305;28;20072;-77
2021/08/13 00:56:47;;;;;;;13.27;6.72;;;;;;;16.00;82.44;99579.31;5012851;28;20072;-79
2021/08/13 00:59:32;;;;;;;7.90;6.32;;;;;;;15.97;82.36;99574.19;5011544;28;20041;-80
2021/08/13 01:02:08;;;;;;;10.88;6.45;;;;;;;15.96;82.28;99573.34;5011140;28;20092;-77
2021/08/13 01:04:36;;;;;;;10.35;6.70;;;;;;;15.92;82.48;99569.09;5011576;28;20040;-76
2021/08/13 01:07:07;;;;;;;11.18;6.85;;;;;;;15.52;82.25;99505.72;5029706;28;20054;-78
2021/08/13 01:09:38;;;;;;;10.35;6.75;;;;;;;15.92;82.22;99574.34;5011813;28;20151;-78
2021/08/13 01:12:24;;;;;;;9.48;6.05;;;;;;;15.90;82.46;99570.03;5028400;28;20045;-76
2021/08/13 01:15:08;;;;;;;10.77;6.72;;;;;;;15.86;82.14;99566.69;5011321;28;20075;-80
2021/08/13 01:17:45;;;;;;;11.18;6.88;;;;;;;15.84;82.35;99571.09;5011344;28;20084;-78
2021/08/13 01:20:34;;;;;;;11.30;6.55;;;;;;;15.82;82.67;99567.66;5011949;28;20417;-80
2021/08/13 01:23:11;;;;;;;13.57;6.75;;;;;;;15.79;82.44;99571.25;4994821;28;20073;-76
2021/08/13 01:25:42;;;;;;;10.57;6.90;;;;;;;15.78;82.66;99564.28;5011424;28;20390;-79
2021/08/13 01:28:47;;;;;;;13.82;6.55;;;;;;;15.75;82.48;99558.31;5011220;28;20095;-78
2021/08/13 01:31:19;;;;;;;13.32;7.30;;;;;;;15.69;82.66;99553.25;4994605;28;20497;-78
2021/08/13 01:33:50;;;;;;;10.63;6.53;;;;;;;15.58;82.52;99551.00;4996454;28;20054;-76
2021/08/13 01:36:18;;;;;;;10.55;6.25;;;;;;;15.55;82.49;99545.84;5035172;28;20102;-80
2021/08/13 01:38:45;;;;;;;10.55;6.35;;;;;;;15.49;82.59;99539.91;5021474;28;20052;-77
2021/08/13 01:41:13;;;;;;;10.13;6.53;;;;;;;15.46;82.41;99547.03;5036997;28;20410;-79
2021/08/13 01:43:43;;;;;;;12.82;6.28;;;;;;;15.40;82.89;99539.34;5037137;28;20136;-79
2021/08/13 01:46:14;;;;;;;8.20;6.13;;;;;;;15.47;82.91;99565.31;5022504;28;20052;-80
2021/08/13 01:48:50;;;;;;;22.15;6.88;;;;;;;15.33;82.36;99550.06;5021339;28;20072;-80
2021/08/13 01:51:18;;;;;;;8.63;6.50;;;;;;;15.38;82.68;99562.13;5004936;28;20452;-77
2021/08/13 01:53:48;;;;;;;11.15;6.68;;;;;;;15.30;82.78;99555.41;5020938;28;20118;-76
2021/08/13 01:56:18;;;;;;;11.35;7.13;;;;;;;15.34;82.89;99572.72;5022265;28;20061;-79
2021/08/13 01:58:45;;;;;;;10.00;6.72;;;;;;;15.24;82.93;99559.94;5023067;28;20042;-78
2021/08/13 02:01:14;;;;;;;10.27;6.65;;;;;;;15.14;82.85;99551.53;5021914;28;20188;-77
2021/08/13 02:03:41;;;;;;;9.50;6.45;;;;;;;15.24;83.25;99573.94;5021285;28;20073;-78
2021/08/13 02:06:08;;;;;;;9.50;6.40;;;;;;;15.27;83.03;99576.47;5004907;28;20132;-77
2021/08/13 02:08:37;;;;;;;13.32;7.28;;;;;;;15.18;83.23;99556.66;5004709;28;20045;-77
2021/08/13 02:11:08;;;;;;;13.57;8.23;;;;;;;15.38;83.38;99573.50;5021146;28;20061;-77
2021/08/13 02:13:37;;;;;;;12.52;7.05;;;;;;;15.56;83.53;99587.75;5008760;28;20068;-77
2021/08/13 02:16:12;;;;;;;14.98;7.43;;;;;;;15.65;83.43;99597.09;5038491;28;20042;-78
2021/08/13 02:18:54;;;;;;;13.68;8.20;;;;;;;15.64;83.39;99601.47;5038840;28;20030;-79
2021/08/13 02:21:22;;;;;;;;;;;;;;;15.78;83.33;99610.63;5039357;28;20041;-79
2021/08/13 02:23:49;;;;;;;14.07;8.15;;;;;;;15.84;83.19;99612.22;5023197;28;19956;-77
2021/08/13 02:26:15;;;;;;;12.88;8.05;;;;;;;15.80;83.04;99607.06;5039039;28;20042;-79
2021/08/13 02:28:46;;;;;;;13.63;8.40;;;;;;;15.82;82.99;99609.63;5038830;28;20054;-78
2021/08/13 02:31:14;;;;;;;9.98;8.25;;;;;;;15.93;83.08;99623.28;5053875;28;20050;-79
2021/08/13 02:33:40;;;;;;;13.73;7.82;;;;;;;15.81;83.06;99606.16;5021423;28;20037;-82
2021/08/13 02:36:12;;;;;;;11.57;7.80;;;;;;;15.92;82.94;99613.72;5054833;28;20030;-80
2021/08/13 02:39:04;;;;;;;12.43;7.45;;;;;;;15.93;82.82;99615.44;5004258;28;20105;-81
2021/08/13 02:41:33;;;;;;;9.77;6.85;;;;;;;15.95;82.85;99610.13;5035389;28;20124;-81
2021/08/13 02:44:03;;;;;;;16.85;7.55;;;;;;;16.20;82.77;99639.00;5013882;28;20042;-80
2021/08/13 02:46:54;;;;;;;10.20;6.30;;;;;;;16.22;82.66;99621.41;5013584;28;20077;-80
2021/08/13 02:49:24;;;;;;;8.05;6.50;;;;;;;16.40;82.58;99632.19;5000310;28;20135;-81
2021/08/13 02:51:59;;;;;;;8.75;6.10;;;;;;;16.47;82.35;99636.31;5013375;28;20061;-80
2021/08/13 02:54:30;;;;;;;5.68;4.78;;;;;;;16.49;82.40;99629.22;5013239;28;20100;-81
2021/08/13 02:56:56;;;;;;;6.95;4.80;;;;;;;16.52;82.11;99636.16;5015675;28;20049;-79
2021/08/13 02:59:27;;;;;;;6.40;4.38;;;;;;;16.44;82.02;99625.06;5014364;28;20041;-80
2021/08/13 03:01:55;;;;;;;8.45;4.30;;;;;;;16.69;81.86;99651.28;5014354;28;20469;-78
2021/08/13 03:04:21;;;;;;;5.28;4.50;;;;;;;16.75;81.82;99651.06;5000587;28;20053;-80
2021/08/13 03:06:49;;;;;;;6.38;4.80;;;;;;;16.79;81.86;99649.16;5030399;28;20468;-78
2021/08/13 03:09:17;;;;;;;8.25;4.28;;;;;;;16.87;81.37;99652.38;5013784;28;20137;-78
2021/08/13 03:11:46;;;;;;;6.88;4.50;;;;;;;16.68;81.15;99623.28;4997289;28;20038;-83
2021/08/13 03:14:20;;;;;;;7.10;4.38;;;;;;;16.85;80.97;99654.19;5013400;28;20121;-78
2021/08/13 03:16:47;;;;;;;6.90;4.53;;;;;;;16.66;80.84;99620.75;5012737;28;20045;-79
2021/08/13 03:19:15;;;;;;;8.73;5.50;;;;;;;16.93;80.75;99664.44;5013323;28;20034;-78
2021/08/13 03:21:42;;;;;;;7.45;4.88;;;;;;;16.84;80.34;99639.34;5012592;28;20062;-78
2021/08/13 03:24:09;;;;;;;11.30;5.45;;;;;;;16.83;79.96;99648.16;5012719;28;20073;-77
2021/08/13 03:26:37;;;;;;;9.25;5.50;;;;;;;16.85;79.89;99662.09;4996396;28;20096;-79
2021/08/13 03:29:08;;;;;;;15.13;5.82;;;;;;;16.70;79.40;99645.13;5012040;28;20080;-77
2021/08/13 03:31:38;;;;;;;8.95;5.32;;;;;;;16.80;79.53;99669.28;5012310;28;20132;-78
2021/08/13 03:34:06;;;;;;;10.63;5.28;;;;;;;16.76;79.28;99665.91;5012758;28;20096;-77
2021/08/13 03:36:33;;;;;;;13.75;5.88;;;;;;;16.65;79.21;99644.44;5011801;28;20121;-78
2021/08/13 03:38:59;;;;;;;8.55;4.50;;;;;;;16.75;79.09;99660.72;5012898;28;20122;-76
2021/08/13 03:41:25;;;;;;;9.43;4.45;;;;;;;16.75;78.95;99672.09;5016325;28;20417;-78
2021/08/13 03:43:52;;;;;;;9.82;5.60;;;;;;;16.75;79.00;99677.34;5013454;28;20041;-79
2021/08/13 03:46:18;;;;;;;10.85;4.03;;;;;;;16.70;78.71;99674.88;4996214;28;20037;-79
2021/08/13 03:48:44;;;;;;;9.25;4.18;;;;;;;16.85;78.64;99688.38;5014325;28;20097;-80
2021/08/13 03:51:11;;;;;;;10.13;4.93;;;;;;;16.97;78.27;99694.97;5015610;28;20064;-79
2021/08/13 03:53:37;;;;;;;16.08;5.93;;;;;;;16.80;78.25;99646.50;5016135;28;20049;-82
2021/08/13 03:56:03;;;;;;;9.30;4.15;;;;;;;17.13;77.97;99697.91;5028612;28;20093;-78
2021/08/13 03:58:31;;;;;;;4.65;3.33;;;;;;;17.21;77.26;99701.09;5011292;28;20045;-78
2021/08/13 04:01:00;;;;;;;5.57;3.10;;;;;;;17.04;76.73;99685.09;5013611;28;20459;-76
2021/08/13 04:03:27;;;;;;;7.68;3.38;;;;;;;17.05;76.58;99698.19;4993977;28;20817;-79
2021/08/13 04:05:57;;;;;;;6.68;3.78;;;;;;;16.94;76.07;99695.03;5011605;28;20053;-78
2021/08/13 04:08:23;;;;;;;6.05;3.50;;;;;;;16.83;75.92;99685.81;5010794;28;20053;-78
2021/08/13 04:10:49;;;;;;;5.95;3.13;;;;;;;17.01;75.71;99701.84;5013488;28;20045;-80
2021/08/13 04:13:15;;;;;;;11.07;3.15;;;;;;;17.05;75.36;99707.81;5012900;28;20037;-80
2021/08/13 04:15:54;;;;;;;4.82;3.40;;;;;;;17.02;74.89;99707.03;5013443;28;20066;-78
2021/08/13 04:18:22;;;;;;;4.10;2.78;;;;;;;17.00;74.47;99702.75;5001618;28;20095;-79
2021/08/13 04:20:48;;;;;;;4.55;3.13;;;;;;;17.01;74.09;99699.22;5005683;28;20069;-76
2021/08/13 04:23:17;;;;;;;6.03;2.97;;;;;;;16.98;74.10;99701.94;5031210;28;20038;-76
2021/08/13 04:25:44;;;;;;;3.17;2.70;;;;;;;17.00;73.85;99700.97;5010863;28;20044;-77
2021/08/13 04:28:10;;;;;;;5.45;2.65;;;;;;;17.02;73.62;99699.13;4994595;28;20042;-76
2021/08/13 04:30:37;;;;;;;5.80;2.80;;;;;;;17.13;73.36;99696.09;5048507;28;20110;-79
2021/08/13 04:33:12;;;;;;;5.95;2.70;;;;;;;17.27;73.08;99698.22;5000639;28;20065;-77
2021/08/13 04:35:43;;;;;;;7.30;3.15;;;;;;;17.54;72.91;99689.34;5027857;28;20046;-79
2021/08/13 04:38:09;;;;;;;6.03;2.72;;;;;;;17.83;72.80;99693.41;5012608;28;20529;-79
2021/08/13 04:40:35;;;;;;;4.25;2.55;;;;;;;17.95;71.83;99673.63;5010998;28;20049;-81
2021/08/13 04:43:01;;;;;;;4.80;2.70;;;;;;;18.09;71.78;99698.56;5011717;28;20046;-80
2021/08/13 04:45:27;;;;;;;6.97;3.00;;;;;;;18.08;71.02;99700.34;4995106;28;20046;-79
2021/08/13 04:47:53;;;;;;;4.60;2.83;;;;;;;18.06;70.96;99689.84;5013011;28;20111;-80
2021/08/13 04:50:20;;;;;;;4.20;2.45;;;;;;;18.10;70.63;99695.84;5014939;28;20045;-77
2021/08/13 04:52:52;;;;;;;5.85;3.05;;;;;;;18.09;70.16;99693.28;4996123;28;20092;-79
2021/08/13 04:55:20;;;;;;;4.45;2.38;;;;;;;18.05;70.07;99682.03;5029829;28;20137;-79
2021/08/13 04:57:47;;;;;;;4.82;2.90;;;;;;;18.07;69.71;99672.31;5012451;28;20042;-78
2021/08/13 05:00:14;;;;;;;3.80;2.50;;;;;;;18.25;68.58;99691.72;4994968;28;20041;-79
2021/08/13 05:02:40;;;;;;;4.18;2.63;;;;;;;18.26;68.63;99700.50;4978150;28;20046;-78
2021/08/13 05:05:07;;;;;;;6.80;2.65;;;;;;;18.30;68.17;99702.91;5010652;28;20064;-79
2021/08/13 05:07:34;;;;;;;6.10;2.80;;;;;;;18.19;68.26;99684.09;4994507;28;20044;-78
2021/08/13 05:10:10;;;;;;;6.00;2.55;;;;;;;18.39;67.83;99711.34;5010796;28;20050;-79
2021/08/13 05:12:37;;;;;;;4.97;2.83;;;;;;;18.42;67.40;99692.78;5010108;28;20038;-81
2021/08/13 05:15:08;;;;;;;5.60;2.92;;;;;;;18.70;67.44;99708.25;5010626;28;20045;-80
2021/08/13 05:17:35;;;;;;;7.23;2.83;;;;;;;18.82;67.07;99714.75;5010362;28;20038;-81
2021/08/13 05:20:02;;;;;;;4.60;2.38;;;;;;;18.86;66.62;99710.19;4994255;28;20034;-78
2021/08/13 05:22:31;;;;;;;5.65;2.75;;;;;;;18.75;66.42;99701.00;4977843;28;20548;-80
2021/08/13 05:24:57;;;;;;;4.63;2.60;;;;;;;18.81;66.39;99700.69;5027287;28;20038;-79
2021/08/13 05:27:22;;;;;;;6.07;2.63;;;;;;;18.91;65.95;99702.94;5009782;28;20045;-78
2021/08/13 05:29:49;;;;;;;5.65;3.05;;;;;;;18.95;65.75;99712.47;5026784;28;20045;-79
2021/08/13 05:32:31;;;;;;;5.60;2.75;;;;;;;19.19;65.51;99704.34;5010820;28;20442;-79
2021/08/13 05:34:58;;;;;;;5.05;2.42;;;;;;;20.28;65.84;99713.22;4994647;28;20060;-79
2021/08/13 05:37:24;;;;;;;7.13;2.75;;;;;;;22.14;64.02;99686.47;5010439;28;20483;-81
2021/08/13 05:39:50;;;;;;;4.47;2.55;;;;;;;23.42;60.53;99697.28;5028621;28;20046;-79
2021/08/13 05:42:17;;;;;;;4.68;2.53;;;;;;;24.61;57.22;99708.97;5021006;28;20048;-78
2021/08/13 05:44:43;;;;;;;5.57;2.30;;;;;;;24.19;55.66;99701.16;5018973;28;20053;-79
2021/08/13 05:47:12;;;;;;;5.53;2.38;;;;;;;23.83;55.13;99686.69;5015145;28;20037;-81
2021/08/13 05:49:38;;;;;;;3.72;2.05;;;;;;;24.05;54.31;99700.28;5010792;28;20049;-79
2021/08/13 05:52:04;;;;;;;5.03;2.20;;;;;;;25.05;53.35;99682.88;4994771;28;20038;-77
2021/08/13 05:54:31;;;;;;;2.92;2.20;;;;;;;25.49;50.43;99716.13;5012057;28;20115;-79
2021/08/13 05:56:59;;;;;;;3.55;2.30;;;;;;;25.45;50.71;99696.03;4995258;28;20046;-80
2021/08/13 05:59:25;;;;;;;4.38;2.72;;;;;;;26.04;50.95;99704.19;5011331;28;20046;-78
2021/08/13 06:01:52;;;;;;;5.85;2.33;;;;;;;25.82;48.13;99719.13;5010387;28;20418;-81
2021/08/13 06:04:17;;;;;;;4.70;2.10;;;;;;;24.76;48.56;99737.19;5010992;28;20046;-81
2021/08/13 06:06:43;;;;;;;3.28;2.22;;;;;;;23.62;49.56;99719.03;5013336;28;20137;-82
2021/08/13 06:09:09;;;;;;;2.60;2.38;;;;;;;22.99;50.41;99727.31;5012270;28;20132;-82
2021/08/13 06:11:35;;;;;;;4.25;2.13;;;;;;;22.38;51.23;99726.59;4979532;28;20044;-77
2021/08/13 06:14:02;;;;;;;5.57;2.47;;;;;;;21.99;51.18;99743.84;5011144;28;20498;-77
2021/08/13 06:16:27;;;;;;;6.85;2.40;;;;;;;21.58;53.16;99740.78;5015768;28;20040;-81
2021/08/13 06:18:53;;;;;;;8.57;2.78;;;;;;;21.28;53.49;99752.13;5047336;28;20045;-79
2021/08/13 06:21:19;;;;;;;5.70;2.30;;;;;;;20.82;54.12;99725.50;5025082;28;20042;-80
2021/08/13 06:23:46;;;;;;;6.25;2.50;;;;;;;20.67;54.68;99764.97;5039453;28;20045;-78
2021/08/13 06:26:13;;;;;;;4.40;2.25;;;;;;;20.43;55.51;99765.28;5021041;28;20041;-80
2021/08/13 06:28:44;;;;;;;;;;;;;;;20.26;55.60;99767.91;5006196;28;20141;-78
2021/08/13 06:31:11;;;;;;;4.60;2.33;;;;;;;19.99;56.47;99757.78;5022252;28;19978;-80
2021/08/13 06:33:37;;;;;;;4.18;2.22;;;;;;;20.02;56.92;99768.19;5014598;28;20109;-77
2021/08/13 06:36:04;;;;;;;3.53;2.45;;;;;;;19.95;57.71;99761.53;5008558;28;20053;-78
2021/08/13 06:38:33;;;;;;;9.02;2.60;;;;;;;21.19;58.06;99776.44;5031179;28;20468;-79
2021/08/13 06:41:24;;;;;;;3.30;1.90;;;;;;;22.15;56.94;99775.63;4998959;28;20537;-81
2021/08/13 06:44:08;;;;;;;3.58;1.80;;;;;;;22.96;56.30;99693.03;5015048;28;20484;-78
2021/08/13 06:46:41;;;;;;;5.55;2.08;;;;;;;25.45;55.59;99696.03;5014342;28;20409;-79
2021/08/13 06:49:32;;;;;;;5.90;2.40;;;;;;;27.58;49.50;99752.78;4999239;28;20049;-80
2021/08/13 06:52:10;;;;;;;7.75;1.73;;;;;;;27.39;46.37;99635.03;5014670;28;20061;-81
2021/08/13 06:54:42;;;;;;;5.03;2.30;;;;;;;27.51;44.26;99704.34;5015370;28;20069;-80
2021/08/13 06:57:08;;;;;;;2.92;1.90;;;;;;;26.56;44.38;99750.88;5014494;28;20041;-79
2021/08/13 06:59:33;;;;;;;5.88;2.13;;;;;;;25.53;45.23;99773.53;5015613;28;20377;-81
2021/08/13 07:02:01;;;;;;;5.28;1.95;;;;;;;24.74;45.97;99771.03;4997515;28;20046;-79
2021/08/13 07:04:29;;;;;;;7.22;2.25;;;;;;;24.03;46.99;99775.75;4982073;28;20371;-83
2021/08/13 07:06:57;;;;;;;5.05;2.40;;;;;;;23.80;47.76;99794.00;5029524;28;20096;-78
2021/08/13 07:09:30;;;;;;;3.85;2.42;;;;;;;23.55;48.44;99792.06;5013378;28;20133;-79
2021/08/13 07:11:56;;;;;;;3.28;2.08;;;;;;;23.34;48.95;99757.94;4997467;28;20140;-81
2021/08/13 07:14:22;;;;;;;4.20;2.20;;;;;;;25.04;49.43;99769.88;4996401;28;20085;-83
2021/08/13 07:16:51;;;;;;;2.85;1.80;;;;;;;26.51;46.77;99769.06;4996974;28;20099;-79
2021/08/13 07:19:17;;;;;;;2.53;1.83;;;;;;;26.86;44.42;99760.19;4996830;28;20075;-80
2021/08/13 07:21:44;;;;;;;6.00;1.83;;;;;;;26.76;43.69;99777.84;5013048;28;20536;-80
2021/08/13 07:24:10;;;;;;;5.07;2.03;;;;;;;26.58;44.39;99764.13;4996124;28;20505;-79
2021/08/13 07:26:40;;;;;;;5.10;2.08;;;;;;;26.83;44.47;99755.09;5013076;28;20058;-81
2021/08/13 07:29:08;;;;;;;6.18;2.72;;;;;;;28.34;43.56;99765.31;5015086;28;20497;-78
2021/08/13 07:31:34;;;;;;;6.10;2.72;;;;;;;29.89;42.35;99761.78;4996898;28;20124;-78
2021/08/13 07:34:05;;;;;;;7.38;2.72;;;;;;;30.47;39.68;99752.03;5028686;28;20042;-80
2021/08/13 07:36:31;;;;;;;2.72;2.30;;;;;;;30.28;38.05;99777.06;4996036;28;20102;-80
2021/08/13 07:38:59;;;;;;;3.97;2.50;;;;;;;29.15;38.59;99767.34;5028849;28;20141;-79
2021/08/13 07:41:52;;;;;;;5.43;2.25;;;;;;;27.60;39.79;99742.81;5030001;28;20250;-79
2021/08/13 07:44:18;;;;;;;5.25;2.38;;;;;;;26.28;40.58;99658.81;4977508;28;20072;-79
2021/08/13 07:46:44;;;;;;;3.58;2.28;;;;;;;26.11;41.63;99806.69;5012790;28;20042;-79
2021/08/13 07:49:15;;;;;;;4.93;2.10;;;;;;;24.84;43.00;99726.00;4996656;28;20040;-81
2021/08/13 07:51:50;;;;;;;4.18;2.33;;;;;;;24.47;43.75;99747.16;5012591;28;20049;-80
2021/08/13 07:54:16;;;;;;;5.10;2.17;;;;;;;24.44;44.64;99800.53;5012516;28;20042;-80
2021/08/13 07:56:48;;;;;;;3.97;2.30;;;;;;;24.12;45.49;99791.09;5011764;28;20485;-77
2021/08/13 07:59:15;;;;;;;5.72;2.50;;;;;;;24.32;45.52;99797.75;4996653;28;20041;-80
2021/08/13 08:01:45;;;;;;;2.63;1.90;;;;;;;24.90;45.63;99802.75;5029831;28;20042;-79
2021/08/13 08:04:11;;;;;;;5.38;2.25;;;;;;;25.60;44.56;99805.91;5014970;28;20068;-79
2021/08/13 08:06:37;;;;;;;4.47;1.92;;;;;;;26.26;43.91;99802.06;5013257;28;20144;-80
2021/08/13 08:09:02;;;;;;;3.65;2.33;;;;;;;26.88;43.40;99803.63;4998989;28;20417;-79
2021/08/13 08:11:28;;;;;;;3.38;2.00;;;;;;;26.84;43.01;99806.63;5012396;28;20489;-80
2021/08/13 08:13:54;;;;;;;4.90;2.08;;;;;;;26.99;42.06;99810.81;5027752;28;20141;-80
2021/08/13 08:16:27;;;;;;;5.78;2.20;;;;;;;26.62;41.68;99789.59;5013579;28;20529;-81
2021/08/13 08:19:00;;;;;;;2.45;1.90;;;;;;;26.67;42.43;99837.28;5023144;28;20076;-81
2021/08/13 08:21:26;;;;;;;5.80;2.50;;;;;;;26.62;42.28;99821.59;4996332;28;20044;-80
2021/08/13 08:23:52;;;;;;;5.90;2.53;;;;;;;26.26;41.74;99808.25;5012795;28;20129;-80
2021/08/13 08:26:17;;;;;;;6.45;2.30;;;;;;;26.02;42.92;99810.91;5011360;28;20048;-78
2021/08/13 08:28:45;;;;;;;4.18;1.90;;;;;;;25.95;42.82;99847.81;5016922;28;20041;-80
2021/08/13 08:31:24;;;;;;;4.35;2.10;;;;;;;25.46;43.77;99808.72;5019272;28;20041;-82
2021/08/13 08:33:52;;;;;;;5.20;2.17;;;;;;;25.41;43.97;99828.50;5016411;28;20041;-80
2021/08/13 08:36:18;;;;;;;9.63;2.40;;;;;;;25.28;43.56;99840.97;5000486;28;20042;-80
2021/08/13 08:39:08;;;;;;;5.05;2.72;;;;;;;24.92;44.40;99827.44;5023983;28;20523;-78
2021/08/13 08:41:33;;;;;;;5.80;2.58;;;;;;;23.99;44.58;99753.84;5020910;28;20094;-79
2021/08/13 08:44:05;;;;;;;3.15;2.13;;;;;;;24.33;45.71;99849.09;5015980;28;20029;-81
2021/08/13 08:47:10;;;;;;;3.95;1.90;;;;;;;23.21;45.51;99715.41;5013567;28;20042;-80
2021/08/13 08:49:43;;;;;;;3.13;2.38;;;;;;;23.98;47.29;99801.78;4996903;28;20041;-80
2021/08/13 08:52:16;;;;;;;5.50;2.15;;;;;;;26.40;45.28;99851.72;4998198;28;20041;-83
2021/08/13 08:55:25;;;;;;;4.13;2.42;;;;;;;27.06;42.91;99709.72;5013298;28;20147;-80
2021/08/13 08:57:59;;;;;;;5.07;2.13;;;;;;;29.63;39.76;99832.00;5007651;28;20056;-82
2021/08/13 09:00:24;;;;;;;2.72;1.98;;;;;;;30.61;37.65;99836.69;5014144;28;20080;-79
2021/08/13 09:02:51;;;;;;;5.97;2.13;;;;;;;30.53;36.36;99807.84;5012658;28;20105;-81
2021/08/13 09:05:17;;;;;;;5.68;2.63;;;;;;;29.74;36.83;99812.28;5012778;28;20128;-79
2021/08/13 09:07:45;;;;;;;6.00;3.00;;;;;;;29.33;37.84;99816.78;5012265;28;20080;-80
2021/08/13 09:10:12;;;;;;;4.65;2.90;;;;;;;29.54;38.07;99844.38;5013118;28;20480;-80
2021/08/13 09:12:40;;;;;;;4.65;2.47;;;;;;;30.58;36.02;99832.44;5012444;28;20041;-79
2021/08/13 09:15:26;;;;;;;5.13;2.50;;;;;;;31.05;34.43;99834.34;5010796;28;20091;-82
2021/08/13 09:18:12;;;;;;;6.25;2.83;;;;;;;31.60;34.17;99842.63;5012798;28;20057;-79
2021/08/13 09:20:40;;;;;;;4.50;2.45;;;;;;;33.08;32.73;99801.97;4995086;28;20128;-80
2021/08/13 09:23:06;;;;;;;8.00;2.63;;;;;;;33.04;32.34;99769.09;4995161;28;20072;-79
2021/08/13 09:25:32;;;;;;;7.25;3.05;;;;;;;32.07;32.05;99804.88;5012429;28;20041;-79
2021/08/13 09:28:16;;;;;;;5.90;2.58;;;;;;;31.60;33.31;99839.94;5011277;28;20037;-79
2021/08/13 09:31:21;;;;;;;4.72;2.45;;;;;;;30.88;32.98;99843.97;5010670;28;20052;-78
2021/08/13 09:33:50;;;;;;;4.57;2.30;;;;;;;29.74;34.43;99856.00;5012190;28;20076;-80
2021/08/13 09:36:19;;;;;;;5.70;2.60;;;;;;;30.07;34.67;99866.56;4995755;28;20041;-80
2021/08/13 09:39:09;;;;;;;4.20;2.28;;;;;;;29.97;34.28;99882.63;4997065;28;20516;-79
2021/08/13 09:41:57;;;;;;;4.93;2.50;;;;;;;29.41;34.78;99876.78;4995828;28;20057;-78
2021/08/13 09:44:33;;;;;;;4.50;2.28;;;;;;;28.87;35.56;99878.69;5013068;28;20038;-78
2021/08/13 09:47:05;;;;;;;5.38;2.50;;;;;;;29.04;35.42;99895.97;5013762;28;20053;-79
2021/08/13 09:49:40;;;;;;;4.00;2.30;;;;;;;30.24;35.31;99877.59;4980414;28;20091;-80
2021/08/13 09:52:14;;;;;;;4.53;2.42;;;;;;;30.67;33.31;99887.13;5028067;28;20168;-81
2021/08/13 09:54:42;;;;;;;5.40;2.47;;;;;;;31.18;32.79;99870.81;5012661;28;20056;-79
2021/08/13 09:57:09;;;;;;;4.18;2.20;;;;;;;31.16;32.86;99859.34;4995479;28;20429;-80
2021/08/13 09:59:36;;;;;;;3.25;2.10;;;;;;;30.61;33.20;99893.06;5000824;28;20041;-77
2021/08/13 10:02:14;;;;;;;4.55;2.80;;;;;;;30.32;33.80;99905.44;5017800;28;20077;-79
2021/08/13 10:04:42;;;;;;;5.10;2.90;;;;;;;29.35;34.23;99885.31;5016938;28;20053;-79
2021/08/13 10:07:08;;;;;;;4.85;2.70;;;;;;;28.57;35.51;99896.31;5018188;28;20042;-80
2021/08/13 10:09:34;;;;;;;4.60;2.40;;;;;;;28.04;36.60;99886.34;4999026;28;20044;-78
2021/08/13 10:12:04;;;;;;;6.57;2.78;;;;;;;28.02;36.36;99907.00;5029860;28;20046;-80
2021/08/13 10:14:40;;;;;;;4.05;2.38;;;;;;;27.71;37.16;99896.94;5026799;28;20046;-78
2021/08/13 10:17:13;;;;;;;4.75;2.70;;;;;;;28.13;37.35;99906.16;4970169;28;20045;-79
2021/08/13 10:19:46;;;;;;;3.67;2.28;;;;;;;28.24;37.10;99908.81;5015700;28;20136;-79
2021/08/13 10:22:15;;;;;;;4.55;2.30;;;;;;;27.92;37.49;99918.41;4997593;28;20049;-81
2021/08/13 10:24:43;;;;;;;4.78;2.50;;;;;;;27.82;37.70;99909.44;4997731;28;20058;-81
2021/08/13 10:27:11;;;;;;;3.67;2.53;;;;;;;27.71;37.75;99896.94;5013836;28;20120;-78
2021/08/13 10:29:37;;;;;;;4.57;2.45;;;;;;;28.89;38.62;99897.28;4997664;28;20096;-82
2021/08/13 10:32:04;;;;;;;3.92;2.50;;;;;;;30.91;35.34;99913.53;5019318;28;20038;-79
2021/08/13 10:34:30;;;;;;;4.45;2.65;;;;;;;31.80;33.89;99829.94;5022866;28;20505;-76
2021/08/13 10:36:57;;;;;;;2.40;2.13;;;;;;;33.46;31.55;99895.03;5014145;28;20049;-80
2021/08/13 10:39:29;;;;;;;4.32;2.45;;;;;;;33.26;30.37;99905.13;5014181;28;20398;-79
2021/08/13 10:42:00;;;;;;;5.10;2.63;;;;;;;31.91;31.52;99891.63;5023562;28;20064;-80
2021/08/13 10:44:35;;;;;;;4.97;2.33;;;;;;;31.16;32.30;99916.63;5019658;28;20054;-80
2021/08/13 10:47:10;;;;;;;4.13;2.50;;;;;;;30.36;32.48;99924.78;5014083;28;20041;-78
2021/08/13 10:49:40;;;;;;;3.83;2.58;;;;;;;29.66;33.73;99905.91;4999005;28;20042;-77
2021/08/13 10:52:07;;;;;;;4.78;2.40;;;;;;;29.41;34.22;99911.59;5016216;28;20390;-79
2021/08/13 10:54:43;;;;;;;4.18;2.85;;;;;;;28.91;34.86;99925.63;5032277;28;20057;-80
2021/08/13 10:57:14;;;;;;;5.25;3.40;;;;;;;28.33;35.73;99936.66;4983842;28;20109;-78
2021/08/13 10:59:40;;;;;;;7.70;3.13;;;;;;;27.88;36.33;99941.06;5016111;28;20095;-79
2021/08/13 11:02:17;;;;;;;6.40;3.28;;;;;;;27.56;37.37;99936.41;5015417;28;20440;-78
2021/08/13 11:04:57;;;;;;;4.75;2.72;;;;;;;27.11;38.10;99920.28;5013703;28;20058;-79
2021/08/13 11:08:02;;;;;;;7.55;2.78;;;;;;;27.26;38.17;99940.44;5014127;28;20076;-81
2021/08/13 11:11:08;;;;;;;2.60;2.40;;;;;;;27.08;38.85;99915.16;4998406;28;20138;-79
2021/08/13 11:13:43;;;;;;;2.97;2.65;;;;;;;27.09;38.92;99924.88;4984706;28;20037;-79
2021/08/13 11:16:25;;;;;;;3.30;2.70;;;;;;;27.35;38.43;99946.94;5013697;28;20156;-78
2021/08/13 11:19:00;;;;;;;3.58;2.67;;;;;;;27.35;37.96;99918.38;5014444;28;20080;-77
2021/08/13 11:21:51;;;;;;;5.22;2.70;;;;;;;27.33;38.50;99951.53;5012676;28;20046;-79
2021/08/13 11:24:50;;;;;;;7.53;2.75;;;;;;;27.10;38.50;99950.63;5012655;28;20127;-79
2021/08/13 11:27:26;;;;;;;2.90;2.30;;;;;;;26.10;38.62;99816.53;4996887;28;20259;-79
2021/08/13 11:30:45;;;;;;;6.50;2.53;;;;;;;26.79;38.87;99958.25;4998467;28;20156;-81
2021/08/13 11:33:37;;;;;;;4.18;2.70;;;;;;;26.61;39.11;99962.16;5014494;28;20038;-79
2021/08/13 11:36:06;;;;;;;5.25;2.58;;;;;;;26.55;39.35;99957.28;5011546;28;20057;-78
2021/08/13 11:38:42;;;;;;;4.35;2.90;;;;;;;26.66;39.60;99975.16;4981270;28;20034;-77
2021/08/13 11:41:34;;;;;;;5.35;2.65;;;;;;;26.75;39.31;99978.94;4998059;28;20042;-78
2021/08/13 11:44:08;;;;;;;4.70;2.95;;;;;;;26.56;39.08;99968.81;5015173;28;20112;-79
2021/08/13 11:50:51;;;;;;;3.42;2.72;;;;;;;25.63;40.75;99972.69;4953127;28;20451;-78
2021/08/13 11:53:18;;;;;;;3.15;2.78;;;;;;;25.16;41.29;99924.38;4920206;29;20114;-79
2021/08/13 11:55:48;;;;;;;3.65;2.63;;;;;;;25.17;41.16;99940.22;4997800;28;20125;-78